createdAt,value
2018-11-22T12:16:12.081Z,9.30
2018-11-22T12:18:40.178Z,11.27
2018-11-22T12:21:08.335Z,9.57
2018-11-22T12:23:37.453Z,10.17
2018-11-22T12:26:05.908Z,11.17
2018-11-22T12:28:33.998Z,10.20
2018-11-22T12:31:06.480Z,8.83
2018-11-22T12:33:44.506Z,10.83
2018-11-22T12:36:18.038Z,9.50
2018-11-22T12:38:46.642Z,10.03
2018-11-22T12:41:14.676Z,9.67
2018-11-22T12:43:43.113Z,9.93
2018-11-22T12:46:11.806Z,8.90
2018-11-22T12:48:40.366Z,9.30
2018-11-22T12:51:09.459Z,10.70
2018-11-22T12:53:37.668Z,10.07
2018-11-22T12:56:05.813Z,10.63
2018-11-22T12:58:33.940Z,10.17
2018-11-22T13:01:02.052Z,11.40
2018-11-22T13:03:30.140Z,10.70
2018-11-22T13:05:58.270Z,9.93
2018-11-22T13:08:26.366Z,11.63
2018-11-22T13:10:54.433Z,10.27
2018-11-22T13:13:22.538Z,12.63
2018-11-22T13:15:50.679Z,11.27
2018-11-22T13:18:18.824Z,9.60
2018-11-22T13:20:46.917Z,9.40
2018-11-22T13:23:15.123Z,9.90
2018-11-22T13:25:43.190Z,10.97
2018-11-22T13:28:11.313Z,11.47
2018-11-22T13:30:39.447Z,10.63
2018-11-22T13:33:07.517Z,10.43
2018-11-22T13:35:39.518Z,12.43
2018-11-22T13:38:07.643Z,11.10
2018-11-22T13:40:35.732Z,10.97
2018-11-22T13:43:03.943Z,10.23
2018-11-22T13:45:32.171Z,10.17
2018-11-22T13:48:00.253Z,11.00
2018-11-22T13:50:29.672Z,11.13
2018-11-22T13:52:59.470Z,12.70
2018-11-22T13:55:27.533Z,11.10
2018-11-22T13:57:55.683Z,12.23
2018-11-22T14:00:32.682Z,9.47
2018-11-22T14:03:05.507Z,11.33
2018-11-22T14:05:33.668Z,11.13
2018-11-22T14:08:01.784Z,10.03
2018-11-22T14:10:29.901Z,11.00
2018-11-22T14:12:58.061Z,13.13
2018-11-22T14:15:27.564Z,12.00
2018-11-22T14:17:57.209Z,10.23
2018-11-22T14:20:28.673Z,11.37
2018-11-22T14:22:56.790Z,11.43
2018-11-22T14:25:24.901Z,11.33
2018-11-22T14:27:53.128Z,13.43
2018-11-22T14:30:22.854Z,10.73
2018-11-22T14:32:51.562Z,10.27
2018-11-22T14:35:20.699Z,10.40
2018-11-22T14:37:48.480Z,11.87
2018-11-22T14:40:19.189Z,10.00
2018-11-22T14:42:48.359Z,10.30
2018-11-22T14:45:16.654Z,11.73
2018-11-22T14:47:45.822Z,11.00
2018-11-22T14:50:17.710Z,9.77
2018-11-22T14:52:50.066Z,7.50
2018-11-22T14:55:18.153Z,10.47
2018-11-22T14:57:46.308Z,11.27
2018-11-22T15:00:15.408Z,9.73
2018-11-22T15:02:44.751Z,10.53
2018-11-22T15:05:13.503Z,10.67
2018-11-22T15:07:42.206Z,11.20
2018-11-22T15:10:12.173Z,12.77
2018-11-22T15:12:40.981Z,10.80
2018-11-22T15:15:11.706Z,11.00
2018-11-22T15:17:40.020Z,11.30
2018-11-22T15:20:09.680Z,10.97
2018-11-22T15:22:38.153Z,10.70
2018-11-22T15:25:07.691Z,10.93
2018-11-22T15:27:35.733Z,11.10
2018-11-22T15:30:05.791Z,10.43
2018-11-22T15:32:33.847Z,10.80
2018-11-22T15:35:01.925Z,11.83
2018-11-22T15:37:29.948Z,10.80
2018-11-22T15:39:58.136Z,11.43
2018-11-22T15:42:26.227Z,11.70
2018-11-22T15:44:54.308Z,10.80
2018-11-22T15:47:22.360Z,10.57
2018-11-22T15:49:50.522Z,10.63
2018-11-22T15:52:18.673Z,11.60
2018-11-22T15:54:46.788Z,11.53
2018-11-22T15:57:14.845Z,10.37
2018-11-22T15:59:42.949Z,12.20
2018-11-22T16:02:11.033Z,12.20
2018-11-22T16:04:39.082Z,11.33
2018-11-22T16:07:07.129Z,10.37
2018-11-22T16:09:35.200Z,9.33
2018-11-22T16:12:03.278Z,10.83
2018-11-22T16:14:31.368Z,13.17
2018-11-22T16:16:59.442Z,10.73
2018-11-22T16:19:27.524Z,10.43
2018-11-22T16:21:55.607Z,11.47
2018-11-22T16:24:23.679Z,11.43
2018-11-22T16:26:51.717Z,11.80
2018-11-22T16:29:19.912Z,9.57
2018-11-22T16:31:47.986Z,12.20
2018-11-22T16:34:16.092Z,11.27
2018-11-22T16:36:44.159Z,12.13
2018-11-22T16:39:12.160Z,11.83
2018-11-22T16:41:40.335Z,11.43
2018-11-22T16:44:08.464Z,11.17
2018-11-22T16:46:36.505Z,10.27
2018-11-22T16:49:04.690Z,10.17
2018-11-22T16:51:32.757Z,10.53
2018-11-22T16:54:00.830Z,10.00
2018-11-22T16:56:29.122Z,9.53
2018-11-22T16:58:57.227Z,10.67
2018-11-22T17:01:27.787Z,10.07
2018-11-22T17:03:53.435Z,11.27
2018-11-22T17:06:21.543Z,12.03
2018-11-22T17:08:49.563Z,11.90
2018-11-22T17:11:17.718Z,10.50
2018-11-22T17:13:45.821Z,11.67
2018-11-22T17:16:13.873Z,11.83
2018-11-22T17:18:41.946Z,9.90
2018-11-22T17:21:10.004Z,11.57
2018-11-22T17:23:38.094Z,11.73
2018-11-22T17:26:06.265Z,12.00
2018-11-22T17:28:34.366Z,10.40
2018-11-22T17:31:02.432Z,11.67
2018-11-22T17:33:30.486Z,9.93
2018-11-22T17:35:58.541Z,10.43
2018-11-22T17:38:26.653Z,12.23
2018-11-22T17:40:54.706Z,13.53
2018-11-22T17:43:22.807Z,13.07
2018-11-22T17:45:51.900Z,10.63
2018-11-22T17:48:19.946Z,11.67
2018-11-22T17:50:48.567Z,11.67
2018-11-22T17:53:16.632Z,13.57
2018-11-22T17:55:44.719Z,12.57
2018-11-22T17:58:13.228Z,12.10
2018-11-22T18:00:47.515Z,12.03
2018-11-22T18:03:15.563Z,13.03
2018-11-22T18:05:43.661Z,14.37
2018-11-22T18:08:11.693Z,12.63
2018-11-22T18:10:40.730Z,13.33
2018-11-22T18:13:08.771Z,12.30
2018-11-22T18:15:45.142Z,13.20
2018-11-22T18:18:13.470Z,14.13
2018-11-22T18:20:41.584Z,13.50
2018-11-22T18:23:11.538Z,13.53
2018-11-22T18:25:37.831Z,12.63
2018-11-22T18:28:05.927Z,13.90
2018-11-22T18:30:34.588Z,12.03
2018-11-22T18:33:03.906Z,12.87
2018-11-22T18:35:31.962Z,13.33
2018-11-22T18:38:00.055Z,14.53
2018-11-22T18:40:29.671Z,14.33
2018-11-22T18:42:58.754Z,14.27
2018-11-22T18:45:31.898Z,12.87
2018-11-22T18:48:00.863Z,14.40
2018-11-22T18:50:29.840Z,13.00
2018-11-22T18:52:57.923Z,14.00
2018-11-22T18:55:25.982Z,13.57
2018-11-22T18:57:54.013Z,14.60
2018-11-22T19:00:24.079Z,14.00
2018-11-22T19:02:53.175Z,12.03
2018-11-22T19:05:21.308Z,13.90
2018-11-22T19:07:50.230Z,13.90
2018-11-22T19:10:19.724Z,11.43
2018-11-22T19:12:49.052Z,12.23
2018-11-22T19:15:18.422Z,12.00
2018-11-22T19:17:46.697Z,9.83
2018-11-22T19:20:17.134Z,11.03
2018-11-22T19:22:46.247Z,12.33
2018-11-22T19:25:14.501Z,10.60
2018-11-22T19:27:43.098Z,9.50
2018-11-22T19:30:13.664Z,12.70
2018-11-22T19:32:42.035Z,11.90
2018-11-22T19:35:11.002Z,12.07
2018-11-22T19:37:41.241Z,13.00
2018-11-22T19:40:17.660Z,11.07
2018-11-22T19:42:46.988Z,11.67
2018-11-22T19:45:16.407Z,13.43
2018-11-22T19:47:44.461Z,14.13
2018-11-22T19:50:14.473Z,12.93
2018-11-22T19:52:43.179Z,12.97
2018-11-22T19:55:13.703Z,11.60
2018-11-22T19:57:42.848Z,13.93
2018-11-22T20:00:12.028Z,12.97
2018-11-22T20:02:40.718Z,10.80
2018-11-22T20:05:10.410Z,11.50
2018-11-22T20:07:38.798Z,11.07
2018-11-22T20:10:09.392Z,10.93
2018-11-22T20:12:37.443Z,11.60
2018-11-22T20:15:06.487Z,10.93
2018-11-22T20:17:34.549Z,12.90
2018-11-22T20:20:03.268Z,10.83
2018-11-22T20:22:31.292Z,11.23
2018-11-22T20:24:59.369Z,11.33
2018-11-22T20:27:27.465Z,10.73
2018-11-22T20:29:55.522Z,11.63
2018-11-22T20:32:23.583Z,10.23
2018-11-22T20:34:51.717Z,10.60
2018-11-22T20:37:19.837Z,11.07
2018-11-22T20:39:47.903Z,12.53
2018-11-22T20:42:16.121Z,10.87
2018-11-22T20:44:44.146Z,11.70
2018-11-22T20:47:12.219Z,10.90
2018-11-22T20:49:40.329Z,10.37
2018-11-22T20:52:08.379Z,10.60
2018-11-22T20:54:36.463Z,10.40
2018-11-22T20:57:04.556Z,11.43
2018-11-22T20:59:32.638Z,11.33
2018-11-22T21:02:00.858Z,10.53
2018-11-22T21:04:29.060Z,12.17
2018-11-22T21:06:57.114Z,10.17
2018-11-22T21:09:25.208Z,10.97
2018-11-22T21:11:53.349Z,11.40
2018-11-22T21:14:21.424Z,10.13
2018-11-22T21:16:49.496Z,10.23
2018-11-22T21:19:17.568Z,10.90
2018-11-22T21:21:45.642Z,10.17
2018-11-22T21:24:13.714Z,9.73
2018-11-22T21:26:41.836Z,8.03
2018-11-22T21:29:09.958Z,9.20
2018-11-22T21:31:38.095Z,10.77
2018-11-22T21:34:06.267Z,9.40
2018-11-22T21:36:34.453Z,11.20
2018-11-22T21:39:02.573Z,10.53
2018-11-22T21:41:30.638Z,10.87
2018-11-22T21:43:58.719Z,9.30
2018-11-22T21:46:30.792Z,9.80
2018-11-22T21:48:58.889Z,8.67
2018-11-22T21:51:27.018Z,9.60
2018-11-22T21:53:55.111Z,8.53
2018-11-22T21:58:04.102Z,7.63
2018-11-22T22:00:35.325Z,9.37
2018-11-22T22:03:04.901Z,9.40
2018-11-22T22:05:32.935Z,9.83
2018-11-22T22:08:01.126Z,10.07
2018-11-22T22:10:29.272Z,9.33
2018-11-22T22:12:57.502Z,9.77
2018-11-22T22:15:27.084Z,9.33
2018-11-22T22:17:55.203Z,10.50
2018-11-22T22:20:24.856Z,8.50
2018-11-22T22:22:52.944Z,8.93
2018-11-22T22:25:22.034Z,8.93
2018-11-22T22:27:50.738Z,10.90
2018-11-22T22:30:20.212Z,9.10
2018-11-22T22:32:49.224Z,8.03
2018-11-22T22:35:17.338Z,9.47
2018-11-22T22:37:45.382Z,9.93
2018-11-22T22:40:15.231Z,8.07
2018-11-22T22:42:44.502Z,8.03
2018-11-22T22:45:13.361Z,7.70
2018-11-22T22:47:41.753Z,8.10
2018-11-22T22:50:12.746Z,9.00
2018-11-22T22:52:40.855Z,7.47
2018-11-22T22:55:09.819Z,8.77
2018-11-22T22:57:38.046Z,7.37
2018-11-22T23:00:13.076Z,7.67
2018-11-22T23:02:41.143Z,8.90
2018-11-22T23:05:09.219Z,6.17
2018-11-22T23:07:37.278Z,7.63
2018-11-22T23:10:05.412Z,7.87
2018-11-22T23:12:35.079Z,8.37
2018-11-22T23:15:04.370Z,8.23
2018-11-22T23:17:32.446Z,8.23
2018-11-22T23:20:00.528Z,9.10
2018-11-22T23:22:28.602Z,8.73
2018-11-22T23:24:56.693Z,9.00
2018-11-22T23:27:24.770Z,8.97
2018-11-22T23:29:52.793Z,8.77
2018-11-22T23:32:20.934Z,7.10
2018-11-22T23:34:49.018Z,9.60
2018-11-22T23:37:17.094Z,8.47
2018-11-22T23:39:45.169Z,10.53
2018-11-22T23:42:13.242Z,7.57
2018-11-22T23:44:41.355Z,10.47
2018-11-22T23:47:09.441Z,8.60
2018-11-22T23:49:37.502Z,7.70
2018-11-22T23:52:05.557Z,8.57
2018-11-22T23:54:33.619Z,9.50
2018-11-22T23:57:01.694Z,8.40
2018-11-22T23:59:29.777Z,8.70
